Silver Houston — 3FWW5 — position and weather

sailwx.info

Track history (hours):
 
Tides and Currents Weather Stations Pressure Air Temp Water Temp Dewpoint Dewpoint Depression Visibility Wind Speed Wind Dir Waves Ship Positions

Silver Houston

Last reported at 2017-Sep-16 07:14 UTC. Time now 2017-Sep-21 09:00 UTC.
Position N 29°44' W 093°52'.

Length 183 m; draft 9.4 m.

Type: Tanker. MMSI: 373105000.

Date/timePositionNaut miles runAvg speedWind from/ knotsBaromVisibWave heightAir tempDewpointWater temp
2017-Sep-16 07:14N 29°44' W 093°52'7 7.5
2017-Sep-16 06:19N 29°49' W 093°57'5 6.4
2017-Sep-16 05:35N 29°53' W 093°55'1 8.5
2017-Sep-16 05:26N 29°54' W 093°54'5 6.5
2017-Sep-16 04:40N 29°58' W 093°51'1 6.6
2017-Sep-16 04:28N 29°59' W 093°53'4 6.8
2017-Sep-16 03:52N 30°00' W 093°57'1 3.3
2017-Sep-16 03:30N 30°01' W 093°59'6 0.2
2017-Sep-14 19:02N 29°59' W 093°52'1 6.5
2017-Sep-14 18:49N 29°58' W 093°51'24 1.8
2017-Sep-14 05:21N 29°35' W 093°42'  
Track history (hours):
 
Tides and Currents Weather Stations Pressure Air Temp Water Temp Dewpoint Dewpoint Depression Visibility Wind Speed Wind Dir Waves Ship Positions

Silver Houston

Last reported at 2017-Sep-16 07:14 UTC. Time now 2017-Sep-21 09:00 UTC.
Position N 29°44' W 093°52'.

Length 183 m; draft 9.4 m.

Type: Tanker. MMSI: 373105000.

Date/timePositionNaut miles runAvg speedWind from/ knotsBaromVisibWave heightAir tempDewpointWater temp
2017-Sep-16 07:14N 29°44' W 093°52'7 7.5
2017-Sep-16 06:19N 29°49' W 093°57'5 6.4
2017-Sep-16 05:35N 29°53' W 093°55'1 8.5
2017-Sep-16 05:26N 29°54' W 093°54'5 6.5
2017-Sep-16 04:40N 29°58' W 093°51'1 6.6
2017-Sep-16 04:28N 29°59' W 093°53'4 6.8
2017-Sep-16 03:52N 30°00' W 093°57'1 3.3
2017-Sep-16 03:30N 30°01' W 093°59'6 0.2
2017-Sep-14 19:02N 29°59' W 093°52'1 6.5
2017-Sep-14 18:49N 29°58' W 093°51'24 1.8
2017-Sep-14 05:21N 29°35' W 093°42'  

Dump ship's entire track history